Time;durP1;ratioP1;P1;durP2;ratioP2;P2;SDS_P1;SDS_P2;PMS_P1;PMS_P2;Temp;Humidity;BMP_temperature;BMP_pressure;BME280_temperature;BME280_humidity;BME280_pressure;Samples;Min_cycle;Max_cycle;Signal;HPM_P1;HPM_P2
2023/10/15 00:00:12;;;;;;;32.80;17.50;;;;;;;-143.21;59.50;71992.88;5067631;28;20216;-76
2023/10/15 00:02:41;;;;;;;35.80;17.80;;;;;;;-143.21;59.63;72000.78;5065076;28;20189;-77
2023/10/15 00:05:09;;;;;;;32.23;17.70;;;;;;;-143.21;59.81;71996.81;5067314;28;20293;-77
2023/10/15 00:07:36;;;;;;;33.37;16.87;;;;;;;-143.21;59.81;71996.81;5067380;28;20668;-76
2023/10/15 00:10:10;;;;;;;32.03;18.07;;;;;;;-143.21;59.81;71998.81;5067564;28;20197;-76
2023/10/15 00:12:37;;;;;;;25.90;16.10;;;;;;;-143.21;59.77;71998.81;5067411;28;20213;-76
2023/10/15 00:15:05;;;;;;;28.87;13.90;;;;;;;-143.21;59.93;72000.78;5067567;28;20312;-76
2023/10/15 00:17:31;;;;;;;26.03;14.47;;;;;;;-143.21;60.31;72010.72;5067455;28;20628;-76
2023/10/15 00:19:58;;;;;;;30.13;13.67;;;;;;;-143.21;60.05;72010.72;5065035;28;20205;-76
2023/10/15 00:22:25;;;;;;;25.27;12.80;;;;;;;-143.21;60.27;72010.72;5067809;28;20258;-76
2023/10/15 00:24:52;;;;;;;23.23;14.43;;;;;;;-143.21;60.40;72026.56;5066944;28;20220;-76
2023/10/15 00:27:20;;;;;;;26.97;13.63;;;;;;;-143.21;60.44;72016.66;5067557;28;20209;-76
2023/10/15 00:29:48;;;;;;;29.17;13.53;;;;;;;-143.21;60.55;72018.63;5067320;28;20279;-76
2023/10/15 00:32:15;;;;;;;28.67;13.13;;;;;;;-143.21;60.47;72024.59;5067524;28;20206;-76
2023/10/15 00:34:41;;;;;;;24.47;12.70;;;;;;;-143.21;60.68;72040.44;5067335;28;20308;-76
2023/10/15 00:37:08;;;;;;;22.03;12.77;;;;;;;-143.21;60.74;72040.44;5067647;28;20202;-78
2023/10/15 00:39:41;;;;;;;21.83;13.57;;;;;;;-143.21;60.75;72034.50;5067513;28;20201;-77
2023/10/15 00:42:08;;;;;;;23.00;12.77;;;;;;;-143.21;60.88;72038.47;5068312;28;20202;-77
2023/10/15 00:44:36;;;;;;;18.03;10.87;;;;;;;-143.21;60.86;72028.56;5067408;28;20197;-77
2023/10/15 00:47:03;;;;;;;20.70;11.37;;;;;;;-143.21;61.01;72022.59;5067697;28;20266;-77
2023/10/15 00:49:33;;;;;;;19.87;11.00;;;;;;;-143.21;60.83;72024.59;5068104;28;20668;-77
2023/10/15 00:52:04;;;;;;;16.97;9.53;;;;;;;-143.21;60.78;72026.56;5067787;28;20235;-77
2023/10/15 00:54:33;;;;;;;19.03;11.00;;;;;;;-143.21;60.71;72026.56;5064603;28;20206;-77
2023/10/15 00:57:25;;;;;;;17.23;10.77;;;;;;;-143.21;60.85;72028.56;5064389;28;20588;-76
2023/10/15 00:59:54;;;;;;;18.17;11.40;;;;;;;-143.21;61.24;72030.53;5070667;28;20209;-76
2023/10/15 01:02:23;;;;;;;15.70;8.47;;;;;;;-143.21;61.31;72042.44;5071282;28;20209;-76
2023/10/15 01:04:52;;;;;;;14.47;8.37;;;;;;;-143.21;61.83;72042.44;5070609;28;20282;-77
2023/10/15 01:07:32;;;;;;;21.47;10.40;;;;;;;-143.21;61.94;72052.34;5071235;28;20762;-77
2023/10/15 01:10:00;;;;;;;16.57;8.70;;;;;;;-143.21;61.71;72052.34;5071606;28;20285;-76
2023/10/15 01:12:32;;;;;;;15.83;9.40;;;;;;;-143.21;61.89;72052.34;5068165;28;20210;-76
2023/10/15 01:15:00;;;;;;;20.07;10.87;;;;;;;-143.21;61.63;72056.31;5071433;28;20266;-76
2023/10/15 01:17:26;;;;;;;26.50;11.93;;;;;;;-143.21;61.93;72064.25;5068241;28;20204;-76
2023/10/15 01:19:53;;;;;;;15.10;9.77;;;;;;;-143.21;61.96;72056.31;5071514;28;20209;-76
2023/10/15 01:22:21;;;;;;;21.30;12.30;;;;;;;-143.21;62.12;72056.31;5071190;28;20220;-77
2023/10/15 01:24:53;;;;;;;37.70;22.20;;;;;;;-143.21;62.11;72056.31;5070763;28;20290;-77
2023/10/15 01:27:27;;;;;;;38.77;23.63;;;;;;;-143.21;61.99;72066.22;5070906;28;20667;-77
2023/10/15 01:29:55;;;;;;;40.73;24.87;;;;;;;-143.21;62.59;72076.16;5070183;28;20232;-77
2023/10/15 01:32:22;;;;;;;45.53;27.70;;;;;;;-143.21;62.52;72080.13;5070457;28;20212;-77
2023/10/15 01:34:52;;;;;;;38.63;25.63;;;;;;;-143.21;62.75;72084.06;5070288;28;20688;-77
2023/10/15 01:37:24;;;;;;;36.83;22.07;;;;;;;-143.21;62.40;72082.09;5070202;28;20228;-77
2023/10/15 01:39:59;;;;;;;36.20;22.43;;;;;;;-143.21;62.49;72090.03;5070595;28;20581;-77
2023/10/15 01:42:41;;;;;;;32.07;18.90;;;;;;;-143.21;62.54;72088.03;5071346;28;20201;-78
2023/10/15 01:45:16;;;;;;;33.93;21.13;;;;;;;-143.21;62.70;72090.03;5068100;28;20215;-77
2023/10/15 01:48:04;;;;;;;28.53;16.40;;;;;;;-143.21;62.55;72088.03;5070033;28;20193;-76
2023/10/15 01:50:33;;;;;;;28.97;15.43;;;;;;;-143.21;62.61;72092.00;5068004;28;20205;-76
2023/10/15 01:53:03;;;;;;;27.63;15.40;;;;;;;-143.21;62.53;72082.09;5066883;28;20679;-77
2023/10/15 01:55:35;;;;;;;26.77;15.80;;;;;;;-143.21;62.86;72095.97;5066565;28;20692;-76
2023/10/15 01:58:04;;;;;;;22.90;14.57;;;;;;;-143.21;63.04;72109.84;5067663;28;20194;-76
2023/10/15 02:00:43;;;;;;;24.93;13.90;;;;;;;-143.21;63.17;72107.88;5070393;28;20201;-76
2023/10/15 02:03:11;;;;;;;19.17;12.30;;;;;;;-143.21;62.92;72105.91;5068610;28;20224;-76
2023/10/15 02:05:47;;;;;;;29.53;13.83;;;;;;;-143.21;62.88;72101.94;5069976;28;20198;-76
2023/10/15 02:08:16;;;;;;;28.67;13.50;;;;;;;-143.21;63.28;72109.84;5070032;28;20197;-76
2023/10/15 02:10:47;;;;;;;29.23;13.33;;;;;;;-143.21;63.41;72129.69;5069289;28;20205;-77
2023/10/15 02:13:16;;;;;;;24.47;14.57;;;;;;;-143.21;63.57;72127.72;5070100;28;20225;-76
2023/10/15 02:15:43;;;;;;;27.17;15.43;;;;;;;-143.21;63.67;72135.63;5070013;28;20578;-76
2023/10/15 02:18:14;;;;;;;31.53;16.63;;;;;;;-143.21;63.82;72135.63;5070106;28;20206;-77
2023/10/15 02:20:47;;;;;;;29.10;16.90;;;;;;;-143.21;63.72;72131.69;5069795;28;20229;-77
2023/10/15 02:23:18;;;;;;;30.13;16.53;;;;;;;-143.21;64.02;72131.69;5069691;28;20814;-76
2023/10/15 02:25:46;;;;;;;30.93;17.57;;;;;;;-143.21;63.89;72133.66;5069588;28;20212;-76
2023/10/15 02:28:16;;;;;;;33.40;18.27;;;;;;;-143.21;63.80;72133.66;5069580;28;20205;-75
2023/10/15 02:30:46;;;;;;;33.73;18.17;;;;;;;-143.21;63.83;72137.63;5068848;28;20237;-76
2023/10/15 02:33:16;;;;;;;34.77;19.50;;;;;;;-143.21;63.94;72139.59;5069241;28;20211;-75
2023/10/15 02:35:45;;;;;;;32.37;18.77;;;;;;;-143.21;63.90;72139.59;5069195;28;20257;-76
2023/10/15 02:38:13;;;;;;;36.33;19.43;;;;;;;-143.21;63.90;72133.66;5069501;28;20258;-76
2023/10/15 02:43:24;;;;;;;30.77;17.57;;;;;;;-143.21;63.74;72145.56;5069198;28;20263;-74
2023/10/15 02:45:51;;;;;;;27.63;16.73;;;;;;;-143.21;64.39;72147.53;5069203;28;20206;-75
2023/10/15 02:48:20;;;;;;;43.57;22.33;;;;;;;-143.21;64.56;72149.53;5068922;28;20221;-75
2023/10/15 02:50:58;;;;;;;40.40;22.93;;;;;;;-143.21;64.35;72145.56;5068509;28;21920;-75
2023/10/15 02:53:27;;;;;;;26.17;13.93;;;;;;;-143.21;64.82;72157.44;5069527;28;20284;-76
2023/10/15 02:55:58;;;;;;;27.50;14.70;;;;;;;-143.21;64.98;72161.41;5069048;28;20776;-76
2023/10/15 02:58:30;;;;;;;30.07;15.93;;;;;;;-143.21;64.75;72151.50;5069240;28;20228;-76
2023/10/15 03:01:06;;;;;;;31.17;17.73;;;;;;;-143.21;65.22;72165.38;5068773;28;20730;-76
2023/10/15 03:03:34;;;;;;;33.07;16.23;;;;;;;-143.21;65.30;72167.38;5066290;28;20205;-77
2023/10/15 03:06:02;;;;;;;43.03;15.73;;;;;;;-143.21;65.05;72163.41;5065746;28;20197;-77
2023/10/15 03:08:33;;;;;;;28.97;13.10;;;;;;;-143.21;64.88;72163.41;5065468;28;20278;-77
2023/10/15 03:11:12;;;;;;;26.23;14.30;;;;;;;-143.21;65.09;72163.41;5064077;28;20209;-75
2023/10/15 03:13:49;;;;;;;28.40;15.10;;;;;;;-143.21;65.17;72173.31;5066149;28;20197;-76
2023/10/15 03:16:18;;;;;;;27.30;13.37;;;;;;;-143.21;65.08;72163.41;5067845;28;20604;-76
2023/10/15 03:18:48;;;;;;;24.97;11.40;;;;;;;-143.21;64.93;72161.41;5068407;28;20205;-76
2023/10/15 03:21:20;;;;;;;25.67;13.10;;;;;;;-143.21;65.00;72159.44;5068441;28;20743;-77
2023/10/15 03:23:49;;;;;;;22.10;12.00;;;;;;;-143.21;65.04;72171.34;5067992;28;20202;-77
2023/10/15 03:26:18;;;;;;;22.37;11.83;;;;;;;-143.21;65.33;72177.28;5068121;28;20212;-77
2023/10/15 03:28:51;;;;;;;28.53;11.40;;;;;;;-143.21;65.30;72179.25;5067885;28;20197;-77
2023/10/15 03:31:20;;;;;;;24.20;12.00;;;;;;;-143.21;65.38;72179.25;5068510;28;20738;-77
2023/10/15 03:34:04;;;;;;;21.53;11.03;;;;;;;-143.21;65.54;72191.16;5067675;28;20327;-77
2023/10/15 03:36:42;;;;;;;26.23;11.40;;;;;;;-143.21;65.80;72191.16;5065697;28;20267;-76
2023/10/15 03:39:15;;;;;;;26.53;11.00;;;;;;;-143.21;65.94;72193.16;5066838;28;20208;-76
2023/10/15 03:41:42;;;;;;;24.33;11.13;;;;;;;-143.21;65.62;72187.19;5068721;28;20193;-76
2023/10/15 03:44:11;;;;;;;23.10;11.13;;;;;;;-143.21;65.89;72191.16;5068341;28;20240;-77
2023/10/15 03:46:40;;;;;;;21.27;10.60;;;;;;;-143.21;65.61;72173.31;5068056;28;20626;-77
2023/10/15 03:49:10;;;;;;;19.17;9.80;;;;;;;-143.21;65.61;72173.31;5067276;28;20840;-76
2023/10/15 03:51:40;;;;;;;17.23;9.33;;;;;;;-143.21;65.67;72167.38;5068019;28;20304;-77
2023/10/15 03:54:08;;;;;;;25.70;10.20;;;;;;;-143.21;65.77;72173.31;5068496;28;20218;-78
2023/10/15 03:56:35;;;;;;;16.70;9.53;;;;;;;-143.21;65.80;72181.25;5067963;28;20230;-77
2023/10/15 03:59:03;;;;;;;21.97;10.20;;;;;;;-143.21;66.06;72181.25;5068050;28;20209;-77
2023/10/15 04:01:37;;;;;;;17.87;10.37;;;;;;;-143.21;66.16;72183.22;5068504;28;20197;-77
2023/10/15 04:04:04;;;;;;;17.57;9.83;;;;;;;-143.21;66.48;72197.13;5065945;28;20660;-77
2023/10/15 04:06:34;;;;;;;23.43;10.27;;;;;;;-143.21;66.33;72201.09;5068259;28;20201;-77
2023/10/15 04:09:09;;;;;;;18.33;10.47;;;;;;;-143.21;66.23;72187.19;5065080;28;20207;-77
2023/10/15 04:11:43;;;;;;;19.33;10.10;;;;;;;-143.21;66.22;72187.19;5068021;28;20205;-77
2023/10/15 04:14:13;;;;;;;26.03;11.60;;;;;;;-143.21;66.17;72183.22;5067907;28;20205;-76
2023/10/15 04:16:42;;;;;;;23.53;10.67;;;;;;;-143.21;66.24;72187.19;5067956;28;20215;-76
2023/10/15 04:19:09;;;;;;;20.63;10.80;;;;;;;-143.21;66.18;72193.16;5067433;28;20609;-77
2023/10/15 04:21:39;;;;;;;22.27;10.80;;;;;;;-143.21;66.44;72193.16;5067566;28;20201;-76
2023/10/15 04:24:07;;;;;;;22.03;10.60;;;;;;;-143.21;66.54;72193.16;5068021;28;20722;-78
2023/10/15 04:26:35;;;;;;;24.07;10.03;;;;;;;-143.21;66.54;72197.13;5067711;28;20201;-76
2023/10/15 04:29:15;;;;;;;20.50;9.73;;;;;;;-143.21;66.48;72197.13;5067321;28;20233;-77
2023/10/15 04:31:46;;;;;;;17.77;10.30;;;;;;;-143.21;66.85;72209.00;5067216;28;20621;-76
2023/10/15 04:34:18;;;;;;;21.20;9.30;;;;;;;-143.21;66.97;72207.03;5071130;28;20575;-76
2023/10/15 04:36:45;;;;;;;17.70;9.53;;;;;;;-143.21;67.09;72216.94;5071562;28;20300;-77
2023/10/15 04:39:12;;;;;;;13.67;9.10;;;;;;;-143.21;67.00;72216.94;5071431;28;20216;-77
2023/10/15 04:41:40;;;;;;;20.57;10.40;;;;;;;-143.21;66.64;72209.00;5071606;28;20259;-77
2023/10/15 04:44:11;;;;;;;20.07;9.83;;;;;;;-143.21;66.74;72209.00;5071597;28;20276;-77
2023/10/15 04:46:42;;;;;;;19.70;10.67;;;;;;;-143.21;67.09;72224.88;5071299;28;20229;-77
2023/10/15 04:49:12;;;;;;;17.87;9.60;;;;;;;-143.21;67.33;72230.81;5071345;28;20217;-77
2023/10/15 04:51:43;;;;;;;20.63;10.70;;;;;;;-143.21;67.27;72224.88;5070955;28;20201;-77
2023/10/15 04:54:10;;;;;;;20.70;12.57;;;;;;;-143.21;67.05;72224.88;5070839;28;20266;-77
2023/10/15 04:56:37;;;;;;;30.97;17.97;;;;;;;-143.21;67.03;72224.88;5070199;28;20267;-77
2023/10/15 04:59:05;;;;;;;30.40;16.53;;;;;;;-143.21;67.11;72228.84;5070618;28;20284;-77
2023/10/15 05:01:33;;;;;;;34.93;16.57;;;;;;;-143.21;67.04;72220.91;5070948;28;20288;-78
2023/10/15 05:04:01;;;;;;;35.43;17.13;;;;;;;-143.21;67.24;72226.84;5071442;28;20252;-78
2023/10/15 05:06:29;;;;;;;38.17;17.03;;;;;;;-143.21;67.63;72232.81;5068355;28;20289;-78
2023/10/15 05:08:57;;;;;;;31.83;17.63;;;;;;;-143.21;67.52;72228.84;5071271;28;20240;-78
2023/10/15 05:11:24;;;;;;;31.13;17.00;;;;;;;-143.21;67.65;72234.78;5071560;28;20531;-77
2023/10/15 05:13:51;;;;;;;26.93;16.50;;;;;;;-143.21;67.58;72230.81;5070199;28;20607;-77
2023/10/15 05:16:18;;;;;;;34.57;17.77;;;;;;;-143.21;67.36;72224.88;5070216;28;20220;-77
2023/10/15 05:18:47;;;;;;;27.67;17.10;;;;;;;-143.21;67.48;72230.81;5070562;28;20198;-77
2023/10/15 05:21:14;;;;;;;33.83;18.13;;;;;;;-143.21;67.40;72222.91;5070411;28;20699;-76
2023/10/15 05:23:42;;;;;;;34.03;17.43;;;;;;;-143.21;67.43;72214.97;5070315;28;20193;-78
2023/10/15 05:26:08;;;;;;;34.93;17.17;;;;;;;-143.21;67.33;72220.91;5069327;28;20660;-76
2023/10/15 05:28:35;;;;;;;28.53;17.57;;;;;;;-143.21;67.36;72220.91;5069084;28;20193;-77
2023/10/15 05:31:02;;;;;;;29.50;17.40;;;;;;;-143.21;67.42;72224.88;5069800;28;20250;-77
2023/10/15 05:33:29;;;;;;;38.70;18.73;;;;;;;-143.21;67.47;72212.97;5069993;28;20200;-79
2023/10/15 05:35:57;;;;;;;31.00;17.17;;;;;;;-143.21;67.53;72214.97;5069822;28;20289;-77
2023/10/15 05:38:25;;;;;;;31.03;17.67;;;;;;;-143.21;67.47;72209.00;5069600;28;20221;-77
2023/10/15 05:40:58;;;;;;;34.70;17.57;;;;;;;-143.21;67.51;72201.09;5069017;28;20289;-76
2023/10/15 05:43:25;;;;;;;28.57;16.63;;;;;;;-143.21;67.50;72191.16;5068506;28;20228;-77
2023/10/15 05:45:52;;;;;;;38.17;17.17;;;;;;;-143.21;67.26;72185.22;5068536;28;20208;-76
2023/10/15 05:48:19;;;;;;;29.80;15.20;;;;;;;-143.21;66.74;72177.28;5069135;28;20290;-76
2023/10/15 05:50:49;;;;;;;30.07;16.17;;;;;;;-143.21;66.62;72177.28;5069444;28;20250;-78
2023/10/15 05:53:16;;;;;;;32.87;14.93;;;;;;;-143.21;66.90;72171.34;5069549;28;20193;-77
2023/10/15 05:55:43;;;;;;;27.93;14.80;;;;;;;-143.21;66.65;72165.38;5067743;28;20301;-76
2023/10/15 05:58:11;;;;;;;32.10;14.33;;;;;;;-143.21;66.80;72171.34;5069848;28;20217;-78
2023/10/15 06:00:40;;;;;;;28.50;14.40;;;;;;;-143.21;66.91;72169.34;5069492;28;20217;-78
2023/10/15 06:03:08;;;;;;;30.80;14.97;;;;;;;-143.21;66.64;72161.41;5069937;28;20205;-78
2023/10/15 06:05:36;;;;;;;24.83;14.63;;;;;;;-143.21;66.67;72163.41;5070248;28;20201;-77
2023/10/15 06:08:04;;;;;;;28.70;14.30;;;;;;;-143.21;66.72;72157.44;5070193;28;20201;-77
2023/10/15 06:10:32;;;;;;;41.17;16.27;;;;;;;-143.21;66.90;72149.53;5070298;28;20241;-78
2023/10/15 06:12:59;;;;;;;26.27;16.20;;;;;;;-143.21;66.44;72147.53;5066622;28;20197;-78
2023/10/15 06:15:28;;;;;;;29.73;15.77;;;;;;;-143.21;66.92;72145.56;5067155;28;20205;-77
2023/10/15 06:17:55;;;;;;;28.87;14.23;;;;;;;-143.21;66.68;72129.69;5069335;28;20316;-77
2023/10/15 06:20:24;;;;;;;31.77;14.97;;;;;;;-143.21;66.38;72129.69;5069824;28;20289;-77
2023/10/15 06:22:55;;;;;;;33.30;15.20;;;;;;;-143.21;66.51;72113.81;5069084;28;20206;-78
2023/10/15 06:25:23;;;;;;;27.93;14.37;;;;;;;-143.21;66.46;72121.75;5067399;28;20653;-78
2023/10/15 06:27:50;;;;;;;25.83;14.57;;;;;;;-143.21;66.33;72113.81;5067138;28;20312;-77
2023/10/15 06:30:17;;;;;;;24.90;14.67;;;;;;;-143.21;66.23;72109.84;5066913;28;20228;-77
2023/10/15 06:32:48;;;;;;;35.90;14.30;;;;;;;-143.21;66.21;72103.91;5067796;28;20200;-77
2023/10/15 06:35:19;;;;;;;27.73;14.57;;;;;;;-143.21;66.06;72088.03;5068164;28;20193;-78
2023/10/15 06:37:46;;;;;;;21.07;13.50;;;;;;;-143.21;65.60;72074.16;5067969;28;20699;-77
2023/10/15 06:40:16;;;;;;;28.20;14.63;;;;;;;-143.21;65.32;72068.22;5068084;28;20212;-78
2023/10/15 06:42:47;;;;;;;32.13;14.33;;;;;;;-143.21;65.45;72064.25;5067010;28;20682;-78
2023/10/15 06:45:18;;;;;;;27.40;15.37;;;;;;;-143.21;65.47;72062.25;5068042;28;20293;-78
2023/10/15 06:47:49;;;;;;;31.50;15.33;;;;;;;-143.21;64.70;72042.44;5066892;28;20376;-76
2023/10/15 06:50:16;;;;;;;28.57;15.27;;;;;;;-143.21;64.38;72034.50;5068141;28;20201;-77
2023/10/15 06:52:43;;;;;;;28.67;14.77;;;;;;;-143.21;63.83;72016.66;5068361;28;20197;-77
2023/10/15 06:55:13;;;;;;;36.43;16.13;;;;;;;-143.21;63.54;72008.72;5070282;28;20263;-77
2023/10/15 06:57:40;;;;;;;27.40;15.53;;;;;;;-143.21;63.43;72004.75;5069229;28;20225;-77
2023/10/15 07:00:08;;;;;;;28.63;15.57;;;;;;;-143.21;63.31;71994.84;5068644;28;20205;-78
2023/10/15 07:02:35;;;;;;;36.93;15.80;;;;;;;-143.21;63.32;71982.94;5068759;28;20255;-78
2023/10/15 07:05:04;;;;;;;30.57;15.50;;;;;;;-143.21;62.93;71971.06;5069215;28;20201;-81
2023/10/15 07:07:32;;;;;;;36.33;15.17;;;;;;;-143.21;62.57;71957.16;5069866;28;20551;-79
2023/10/15 07:10:01;;;;;;;23.30;14.80;;;;;;;-143.21;61.71;71947.25;5068283;28;20657;-79
2023/10/15 07:12:27;;;;;;;30.60;15.23;;;;;;;-143.21;61.50;71935.34;5066272;28;20201;-78
2023/10/15 07:14:54;;;;;;;26.33;14.00;;;;;;;-143.21;61.47;71921.47;5066919;28;20201;-77
2023/10/15 07:17:21;;;;;;;26.77;13.83;;;;;;;-143.21;61.40;71921.47;5067540;28;20278;-76
2023/10/15 07:19:48;;;;;;;25.63;14.87;;;;;;;-143.21;61.02;71909.56;5068047;28;20193;-76
2023/10/15 07:22:16;;;;;;;29.63;14.27;;;;;;;-143.21;60.65;71895.69;5068059;28;20342;-76
2023/10/15 07:24:43;;;;;;;27.97;14.10;;;;;;;-143.21;60.71;71891.72;5068174;28;20580;-77
2023/10/15 07:27:10;;;;;;;26.33;13.70;;;;;;;-143.21;60.54;71885.78;5068052;28;20268;-78
2023/10/15 07:29:38;;;;;;;24.43;13.07;;;;;;;-143.21;59.89;71873.88;5067806;28;20290;-76
2023/10/15 07:32:07;;;;;;;25.87;12.07;;;;;;;-143.21;59.80;71856.03;5067507;28;20222;-77
2023/10/15 07:34:34;;;;;;;26.63;12.80;;;;;;;-143.21;59.14;71842.16;5066947;28;20197;-76
2023/10/15 07:37:01;;;;;;;26.17;11.57;;;;;;;-143.21;59.18;71836.22;5067950;28;20205;-77
2023/10/15 07:39:31;;;;;;;22.13;11.63;;;;;;;-143.21;58.58;71830.25;5067910;28;20582;-79
2023/10/15 07:41:58;;;;;;;20.20;10.60;;;;;;;-143.21;58.29;71820.34;5067733;28;20190;-76
2023/10/15 07:44:25;;;;;;;24.87;12.17;;;;;;;-143.21;58.28;71816.38;5069431;28;20194;-77
2023/10/15 07:46:52;;;;;;;16.97;10.13;;;;;;;-143.21;57.92;71802.50;5067191;28;20201;-77
2023/10/15 07:49:19;;;;;;;22.00;10.60;;;;;;;-143.21;57.25;71794.56;5066934;28;20213;-77
2023/10/15 07:51:47;;;;;;;17.40;10.23;;;;;;;-143.21;57.11;71778.72;5068092;28;20262;-76
2023/10/15 07:54:15;;;;;;;18.60;10.43;;;;;;;-143.21;57.16;71778.72;5067327;28;20741;-78
2023/10/15 07:56:43;;;;;;;20.33;11.10;;;;;;;-143.21;56.81;71762.84;5067089;28;20237;-78
2023/10/15 07:59:10;;;;;;;25.93;10.87;;;;;;;-143.21;56.88;71760.88;5067175;28;20241;-78
2023/10/15 08:01:37;;;;;;;16.73;10.50;;;;;;;-143.21;56.58;71752.94;5067593;28;20664;-76
2023/10/15 08:04:05;;;;;;;26.07;11.10;;;;;;;-143.21;56.44;71745.00;5067773;28;20232;-77
2023/10/15 08:06:32;;;;;;;30.67;11.07;;;;;;;-143.21;56.07;71729.13;5067358;28;20259;-77
2023/10/15 08:08:59;;;;;;;32.13;11.33;;;;;;;-143.21;55.85;71715.25;5064853;28;20197;-77
2023/10/15 08:11:28;;;;;;;29.97;11.03;;;;;;;-143.21;55.98;71699.41;5068200;28;20209;-78
2023/10/15 08:13:57;;;;;;;19.63;10.23;;;;;;;-143.21;55.45;71691.47;5067966;28;20197;-78
2023/10/15 08:16:26;;;;;;;21.50;10.30;;;;;;;-143.21;55.14;71675.59;5067839;28;20571;-79
2023/10/15 08:18:54;;;;;;;19.20;9.97;;;;;;;-143.21;54.30;71653.78;5067814;28;20225;-79
2023/10/15 08:21:22;;;;;;;20.73;10.63;;;;;;;-143.21;54.03;71639.91;5068415;28;20296;-78
2023/10/15 08:23:50;;;;;;;21.70;9.63;;;;;;;-143.21;53.83;71620.09;5067773;28;20679;-78
2023/10/15 08:26:16;;;;;;;17.95;8.98;;;;;;;-143.21;52.79;71586.38;5068021;28;20220;-79
2023/10/15 08:28:43;;;;;;;19.67;10.18;;;;;;;-143.21;52.23;71558.63;5067518;28;20582;-77
2023/10/15 08:31:12;;;;;;;26.88;9.75;;;;;;;-143.21;51.88;71524.91;5067784;28;20259;-78
2023/10/15 08:33:38;;;;;;;16.83;9.10;;;;;;;-143.21;51.48;71485.25;5067675;28;20579;-79
2023/10/15 08:36:07;;;;;;;24.30;9.57;;;;;;;-143.21;50.54;71449.56;5067674;28;20201;-79
2023/10/15 08:38:35;;;;;;;19.50;8.98;;;;;;;-143.21;49.52;71413.88;5067544;28;20810;-78
2023/10/15 08:41:06;;;;;;;17.67;9.02;;;;;;;-143.21;48.55;71380.19;5067180;28;20209;-77
2023/10/15 08:43:33;;;;;;;19.90;8.70;;;;;;;-143.21;47.99;71346.47;5067412;28;20216;-77
2023/10/15 08:46:00;;;;;;;16.05;8.60;;;;;;;-143.21;47.66;71322.69;5067840;28;20205;-78
2023/10/15 08:48:30;;;;;;;17.88;7.60;;;;;;;-143.21;46.48;71283.03;5064738;28;20206;-77
2023/10/15 08:50:59;;;;;;;16.98;8.48;;;;;;;-143.21;46.16;71251.31;5068071;28;20221;-79
2023/10/15 08:53:28;;;;;;;20.45;7.47;;;;;;;-143.21;45.43;71199.78;5068084;28;20648;-78
2023/10/15 08:55:57;;;;;;;19.42;7.72;;;;;;;-143.21;44.04;71160.13;5068365;28;20221;-79
2023/10/15 08:58:26;;;;;;;16.15;7.82;;;;;;;-143.21;43.98;71124.44;5068047;28;20240;-81
2023/10/15 09:00:57;;;;;;;19.73;7.53;;;;;;;-143.21;43.27;71098.66;5067777;28;20205;-80
2023/10/15 09:03:24;;;;;;;17.48;7.53;;;;;;;-143.21;42.57;71055.06;5067213;28;20202;-79
2023/10/15 09:05:53;;;;;;;16.52;7.93;;;;;;;-143.21;41.93;71017.38;5067736;28;20213;-79
2023/10/15 09:08:22;;;;;;;16.08;7.50;;;;;;;-143.21;40.98;70981.69;5067916;28;20286;-79
2023/10/15 09:10:52;;;;;;;15.25;7.72;;;;;;;-143.21;40.85;70944.03;5066449;28;20209;-78
2023/10/15 09:13:21;;;;;;;15.05;7.35;;;;;;;-143.21;39.97;70896.47;5067422;28;20217;-79
2023/10/15 09:15:49;;;;;;;18.85;7.32;;;;;;;-143.21;39.33;70854.84;5066593;28;21012;-78
2023/10/15 09:18:17;;;;;;;20.48;7.65;;;;;;;-143.21;38.71;70817.16;5068001;28;20228;-78
2023/10/15 09:20:45;;;;;;;14.10;7.00;;;;;;;-143.21;37.71;70779.50;5071057;28;20220;-78
2023/10/15 09:23:14;;;;;;;18.02;7.18;;;;;;;-143.21;37.79;70749.78;5070520;28;20589;-78
2023/10/15 09:25:42;;;;;;;19.10;8.00;;;;;;;-143.21;37.31;70712.09;5069836;28;20216;-78
2023/10/15 09:28:09;;;;;;;13.73;7.47;;;;;;;-143.21;36.48;70682.38;5070103;28;20205;-79
2023/10/15 09:30:36;;;;;;;17.15;7.78;;;;;;;-143.21;36.00;70648.69;5070011;28;20240;-80
2023/10/15 09:33:11;;;;;;;13.88;7.10;;;;;;;-143.21;35.88;70601.09;5070572;28;20206;-78
2023/10/15 09:35:39;;;;;;;14.07;5.97;;;;;;;-143.21;35.38;70555.50;5070878;28;20228;-80
2023/10/15 09:38:13;;;;;;;17.20;6.60;;;;;;;-143.21;34.90;70502.00;5071175;28;20229;-77
2023/10/15 09:40:43;;;;;;;17.25;7.10;;;;;;;-143.21;34.14;70464.34;5070195;28;20212;-77
2023/10/15 09:43:12;;;;;;;15.38;6.53;;;;;;;-143.21;33.45;70450.47;5070553;28;20212;-76
2023/10/15 09:45:41;;;;;;;15.30;6.43;;;;;;;-143.21;33.72;70424.69;5070326;28;20225;-77
2023/10/15 09:48:10;;;;;;;18.30;6.47;;;;;;;-143.21;33.12;70377.13;5070360;28;20592;-77
2023/10/15 09:50:42;;;;;;;14.40;6.30;;;;;;;-143.21;32.83;70327.56;5070139;28;20665;-80
2023/10/15 09:53:12;;;;;;;21.88;6.53;;;;;;;-143.21;32.32;70274.06;5070884;28;20205;-80
2023/10/15 09:55:40;;;;;;;17.75;6.78;;;;;;;-143.21;32.17;70238.38;5071303;28;20208;-79
2023/10/15 09:58:10;;;;;;;13.30;6.32;;;;;;;-143.21;31.85;70228.47;5070915;28;20312;-78
2023/10/15 10:00:47;;;;;;;12.38;6.15;;;;;;;-143.21;31.38;70182.91;5070636;28;20194;-79
2023/10/15 10:03:37;;;;;;;15.93;6.47;;;;;;;-143.21;31.13;70139.28;5070372;28;20204;-80
2023/10/15 10:06:15;;;;;;;13.77;5.85;;;;;;;-143.21;30.29;70105.59;5068489;28;20228;-78
2023/10/15 10:08:59;;;;;;;14.88;6.20;;;;;;;-143.21;30.80;70161.09;5070505;28;20668;-78
2023/10/15 10:11:45;;;;;;;15.32;5.75;;;;;;;-143.21;30.59;70147.22;5066666;28;20525;-78
2023/10/15 10:14:32;;;;;;;11.25;6.15;;;;;;;-143.21;29.91;70103.63;5068502;28;20209;-78
2023/10/15 10:17:00;;;;;;;15.32;5.40;;;;;;;-143.21;29.96;70060.03;5067273;28;20205;-79
2023/10/15 10:19:28;;;;;;;11.73;6.00;;;;;;;-143.21;29.60;70026.31;5066602;28;20229;-78
2023/10/15 10:21:55;;;;;;;9.85;5.50;;;;;;;-143.21;29.15;69992.63;5070074;28;20286;-79
2023/10/15 10:24:23;;;;;;;12.93;5.75;;;;;;;-143.21;28.99;69953.00;5069516;28;20258;-79
2023/10/15 10:26:53;;;;;;;13.65;5.55;;;;;;;-143.21;28.50;69945.06;5069807;28;20702;-79
2023/10/15 10:29:26;;;;;;;16.45;6.28;;;;;;;-143.21;28.98;69974.81;5069337;28;20318;-78
2023/10/15 10:31:55;;;;;;;16.10;5.10;;;;;;;-143.21;29.12;70028.31;5069245;28;20213;-78
2023/10/15 10:34:30;;;;;;;8.85;5.60;;;;;;;-143.21;29.59;70065.97;5069612;28;20213;-79
2023/10/15 10:36:57;;;;;;;11.98;5.13;;;;;;;-143.21;29.88;70083.81;5069870;28;20263;-80
2023/10/15 10:39:26;;;;;;;12.05;5.70;;;;;;;-143.21;30.02;70107.59;5070008;28;20675;-79
2023/10/15 10:41:58;;;;;;;11.73;4.93;;;;;;;-143.21;29.82;70058.03;5070073;28;20213;-78
2023/10/15 10:44:41;;;;;;;9.20;5.10;;;;;;;-143.21;28.78;70008.50;5070626;28;20214;-79
2023/10/15 10:47:21;;;;;;;11.88;5.07;;;;;;;-143.21;28.42;69980.75;5067055;28;20209;-79
2023/10/15 10:49:59;;;;;;;12.57;5.07;;;;;;;-143.21;27.87;69945.06;5069330;28;20216;-78
2023/10/15 10:52:34;;;;;;;11.70;5.03;;;;;;;-143.21;28.86;69915.34;5066306;28;20228;-80
2023/10/15 10:55:34;;;;;;;13.55;5.20;;;;;;;-143.21;27.79;69897.50;5067381;28;20201;-80
2023/10/15 10:58:04;;;;;;;8.65;5.30;;;;;;;-143.21;28.00;69915.34;5061024;28;20634;-80
2023/10/15 11:00:32;;;;;;;5.28;4.05;;;;;;;-143.21;28.77;69895.53;5066911;28;20595;-80
2023/10/15 11:03:01;;;;;;;8.88;4.78;;;;;;;-143.21;27.95;69851.94;5066834;28;20262;-80
2023/10/15 11:05:30;;;;;;;14.05;5.20;;;;;;;-143.21;27.31;69834.09;5066974;28;20208;-79
2023/10/15 11:07:57;;;;;;;12.35;4.95;;;;;;;-143.21;26.90;69800.41;5070438;28;20288;-79
2023/10/15 11:10:23;;;;;;;41.97;5.53;;;;;;;-143.21;28.57;69758.78;5070749;28;20666;-81
2023/10/15 11:12:50;;;;;;;10.13;4.82;;;;;;;-143.21;26.79;69725.09;5069107;28;20871;-81
2023/10/15 11:15:20;;;;;;;17.20;5.03;;;;;;;-143.21;27.32;69699.34;5066606;28;20204;-82
2023/10/15 11:17:58;;;;;;;12.43;4.65;;;;;;;-143.21;26.51;69655.75;5068551;28;20274;-83